Time;durP1;ratioP1;P1;durP2;ratioP2;P2;SDS_P1;SDS_P2;PMS_P1;PMS_P2;Temp;Humidity;BMP_temperature;BMP_pressure;BME280_temperature;BME280_humidity;BME280_pressure;Samples;Min_cycle;Max_cycle;Signal;HPM_P1;HPM_P2
2022/06/04 15:05:45;;;;;;;5.55;5.05;;;;;;;25.15;51.63;100650.45;3653681;75;21061;-84
2022/06/04 15:10:39;;;;;;;;;;;;;;;24.58;51.56;100653.80;3685213;75;21432;-82
2022/06/04 15:16:05;;;;;;;7.10;5.10;;;;;;;24.10;51.59;100650.89;3647963;75;20542;-85
2022/06/04 15:21:28;;;;;;;10.15;5.75;;;;;;;23.72;52.38;100652.77;3689971;75;21318;-85
2022/06/04 15:26:33;;;;;;;6.95;5.15;;;;;;;23.43;53.52;100661.85;3638387;76;20983;-85
2022/06/04 15:37:00;;;;;;;7.85;5.25;;;;;;;22.88;55.58;100664.67;3673325;75;20971;-85
2022/06/04 15:42:17;;;;;;;6.55;5.97;;;;;;;22.81;56.23;100665.34;3629304;75;21480;-85
2022/06/04 15:47:14;;;;;;;5.35;4.85;;;;;;;22.87;56.35;100662.08;3607799;75;20974;-86
2022/06/04 15:58:04;;;;;;;4.15;3.77;;;;;;;23.05;55.67;100660.13;3686510;75;20967;-85
2022/06/04 16:02:57;;;;;;;4.42;4.03;;;;;;;22.98;54.78;100658.58;3662635;75;20984;-85
2022/06/04 16:08:02;;;;;;;4.15;3.85;;;;;;;23.08;54.84;100665.32;3646626;75;20900;-85
2022/06/04 16:13:23;;;;;;;4.17;3.77;;;;;;;23.11;54.52;100662.56;3661033;75;21839;-85
2022/06/04 16:18:37;;;;;;;4.75;4.28;;;;;;;23.25;54.65;100669.14;3667312;75;20975;-85
2022/06/04 16:23:59;;;;;;;4.10;3.80;;;;;;;23.12;54.18;100665.61;3632599;76;20959;-86
2022/06/04 16:28:57;;;;;;;3.98;3.67;;;;;;;22.97;54.25;100660.84;3619987;76;20913;-84
2022/06/04 16:34:10;;;;;;;4.10;3.72;;;;;;;22.87;54.72;100658.09;3638699;76;21550;-85
2022/06/04 16:39:01;;;;;;;5.30;4.87;;;;;;;22.77;54.92;100653.13;3690522;75;21193;-85
2022/06/04 16:44:16;;;;;;;4.67;4.28;;;;;;;22.60;54.84;100650.18;3600069;75;21779;-85
2022/06/04 16:54:24;;;;;;;5.83;4.42;;;;;;;22.26;55.30;100662.75;3633547;76;20942;-85
2022/06/04 16:59:16;;;;;;;5.47;4.72;;;;;;;22.13;55.89;100669.81;3605474;76;20888;-85
2022/06/04 17:04:21;;;;;;;4.90;4.50;;;;;;;22.02;55.83;100677.63;3634906;75;21089;-85
2022/06/04 17:09:42;;;;;;;5.40;4.40;;;;;;;21.92;55.99;100680.13;3618971;77;20987;-85
2022/06/04 17:15:06;;;;;;;5.20;4.08;;;;;;;21.81;56.55;100678.28;3586426;77;20923;-85
2022/06/04 17:20:31;;;;;;;7.40;4.47;;;;;;;21.70;56.79;100680.78;3645667;77;20966;-85
2022/06/04 17:26:06;;;;;;;31.35;7.17;;;;;;;21.63;57.10;100683.20;3600897;78;21250;-84
2022/06/04 17:31:17;;;;;;;9.10;5.95;;;;;;;21.52;58.05;100689.27;3606798;77;21743;-85
2022/06/04 17:36:23;;;;;;;6.85;5.40;;;;;;;21.41;58.25;100695.27;3625612;77;21456;-84
2022/06/04 17:41:29;;;;;;;4.30;4.00;;;;;;;21.30;58.43;100695.14;3624147;76;20963;-84
2022/06/04 17:46:20;;;;;;;4.87;4.40;;;;;;;21.18;58.87;100686.69;3628198;76;21457;-84
2022/06/04 17:51:14;;;;;;;5.75;5.25;;;;;;;21.06;59.56;100691.84;3617530;76;20989;-84
2022/06/04 17:56:05;;;;;;;5.85;5.35;;;;;;;20.92;60.03;100693.05;3601448;75;20975;-84
2022/06/04 18:00:57;;;;;;;7.55;5.50;;;;;;;20.77;60.50;100688.66;3623862;75;21506;-84
2022/06/04 18:05:49;;;;;;;6.92;4.92;;;;;;;20.65;61.01;100693.32;3582921;75;21029;-84
2022/06/04 18:10:41;;;;;;;9.18;5.37;;;;;;;20.55;61.38;100688.70;3591388;75;21462;-84
2022/06/04 18:15:33;;;;;;;12.03;7.10;;;;;;;20.43;61.66;100696.92;3629160;76;21110;-84
2022/06/04 18:20:24;;;;;;;7.92;7.20;;;;;;;20.31;61.90;100698.07;3606253;75;21416;-84
2022/06/04 18:25:16;;;;;;;6.92;6.35;;;;;;;20.21;62.04;100705.81;3660410;75;20909;-84
2022/06/04 18:30:08;;;;;;;6.95;6.45;;;;;;;20.10;62.47;100700.78;3623760;75;21469;-84
2022/06/04 18:35:00;;;;;;;15.90;7.35;;;;;;;19.96;62.89;100704.15;3602322;75;21516;-84
2022/06/04 18:39:51;;;;;;;6.87;6.17;;;;;;;19.85;63.24;100708.80;3632316;75;20888;-84
2022/06/04 18:55:04;;;;;;;6.75;5.95;;;;;;;19.48;64.33;100710.41;3618850;76;21481;-84
2022/06/04 18:59:56;;;;;;;6.70;6.20;;;;;;;19.36;64.44;100714.14;3530430;76;20994;-84
2022/06/04 19:04:49;;;;;;;7.53;6.83;;;;;;;19.25;64.77;100716.13;3591654;76;20903;-84
2022/06/04 19:09:40;;;;;;;7.70;6.70;;;;;;;19.13;64.95;100724.27;3634499;75;21433;-84
2022/06/04 19:14:32;;;;;;;9.47;8.60;;;;;;;19.01;65.25;100736.77;3639753;76;21025;-84
2022/06/04 19:19:27;;;;;;;8.90;8.03;;;;;;;18.90;65.26;100751.87;3595117;76;21672;-83
2022/06/04 19:29:30;;;;;;;9.30;8.45;;;;;;;18.57;66.20;100748.87;3648284;76;20936;-84
2022/06/04 19:34:22;;;;;;;8.83;7.55;;;;;;;18.53;66.41;100759.45;3656108;75;22100;-84
2022/06/04 19:39:13;;;;;;;9.55;8.48;;;;;;;18.45;66.77;100763.08;3640729;76;20983;-83
2022/06/04 19:44:17;;;;;;;8.98;8.20;;;;;;;18.41;66.90;100768.42;3652815;75;20988;-84
2022/06/04 19:48:59;;;;;;;10.03;9.03;;;;;;;18.36;67.18;100771.56;3632274;75;21422;-84
2022/06/04 19:58:46;;;;;;;9.93;8.48;;;;;;;18.29;67.64;100784.80;3582066;76;21058;-84
2022/06/04 20:03:37;;;;;;;9.35;8.55;;;;;;;18.27;67.76;100785.27;3648517;76;20998;-83
2022/06/04 20:08:29;;;;;;;9.45;8.55;;;;;;;18.22;67.73;100784.45;3617059;77;21440;-83
2022/06/04 20:13:21;;;;;;;10.90;9.80;;;;;;;18.15;67.94;100781.48;3604901;76;21073;-84
2022/06/04 20:18:13;;;;;;;11.43;10.50;;;;;;;18.07;68.12;100778.09;3616067;75;21422;-84
2022/06/04 20:23:05;;;;;;;11.22;10.23;;;;;;;18.00;68.32;100768.55;3589107;75;20920;-84
2022/06/04 20:27:58;;;;;;;11.90;10.68;;;;;;;17.88;68.42;100769.14;3650632;76;20937;-83
2022/06/04 20:32:50;;;;;;;13.75;12.28;;;;;;;17.81;68.62;100768.72;3648674;75;20928;-84
2022/06/04 20:37:41;;;;;;;11.95;10.98;;;;;;;17.72;68.91;100768.84;3614081;75;21362;-84
2022/06/04 20:42:32;;;;;;;12.80;11.60;;;;;;;17.66;68.98;100769.78;3655194;75;21290;-83
2022/06/04 20:47:23;;;;;;;14.75;13.25;;;;;;;17.56;69.19;100768.59;3621433;75;21402;-84
2022/06/04 20:52:15;;;;;;;14.07;12.60;;;;;;;17.44;69.32;100774.41;3599793;77;20942;-83
2022/06/04 20:57:07;;;;;;;14.80;13.25;;;;;;;17.31;69.52;100779.34;3630482;77;20963;-84
2022/06/04 21:01:58;;;;;;;17.60;13.45;;;;;;;17.22;69.95;100779.45;3598800;75;20970;-84
2022/06/04 21:06:49;;;;;;;17.77;13.65;;;;;;;17.11;69.97;100783.03;3671642;75;21102;-84
2022/06/04 21:11:41;;;;;;;15.08;13.58;;;;;;;17.02;70.30;100788.83;3616896;77;21544;-84
2022/06/04 21:16:32;;;;;;;16.30;14.45;;;;;;;16.93;70.56;100793.70;3599180;75;21057;-84
2022/06/04 21:21:25;;;;;;;14.53;12.90;;;;;;;16.83;70.47;100794.62;3607513;77;20987;-84
2022/06/04 21:26:31;;;;;;;15.25;13.72;;;;;;;16.75;70.63;100798.17;3634336;76;20919;-83
2022/06/04 21:31:25;;;;;;;15.65;14.13;;;;;;;16.68;70.77;100800.41;3646992;76;22470;-84
2022/06/04 21:41:39;;;;;;;15.20;13.45;;;;;;;16.63;71.12;100798.25;3629060;75;20986;-83
2022/06/04 21:46:31;;;;;;;10.00;9.08;;;;;;;16.63;71.23;100796.94;3609476;75;21138;-84
2022/06/04 21:51:23;;;;;;;9.23;8.33;;;;;;;16.66;70.38;100795.62;3624643;75;20986;-83
2022/06/04 21:56:15;;;;;;;9.28;8.38;;;;;;;16.74;69.94;100800.80;3639461;76;21011;-83
2022/06/04 22:01:12;;;;;;;7.60;7.00;;;;;;;16.81;69.15;100800.33;3610954;77;21309;-83
2022/06/04 22:06:03;;;;;;;6.78;6.00;;;;;;;16.91;68.87;100799.42;3655495;77;20928;-83
2022/06/04 22:10:57;;;;;;;6.78;6.08;;;;;;;17.01;67.86;100797.16;3658671;75;20999;-83
2022/06/04 22:15:49;;;;;;;7.65;5.50;;;;;;;17.09;67.24;100805.82;3632674;75;20933;-84
2022/06/04 22:20:40;;;;;;;6.30;5.72;;;;;;;17.18;66.69;100815.38;3621669;76;21374;-83
2022/06/04 22:25:31;;;;;;;5.50;5.00;;;;;;;17.25;66.39;100814.44;3629256;75;21005;-83
2022/06/04 22:30:22;;;;;;;5.95;5.40;;;;;;;17.29;65.86;100820.55;3620423;76;21818;-84
2022/06/04 22:35:13;;;;;;;7.83;5.20;;;;;;;17.30;65.82;100818.36;3640733;75;20940;-83
2022/06/04 22:40:07;;;;;;;5.47;5.08;;;;;;;17.32;65.50;100821.84;3630664;76;20980;-83
2022/06/04 22:44:59;;;;;;;7.90;5.45;;;;;;;17.33;65.32;100820.94;3632297;75;21146;-83
2022/06/04 22:49:50;;;;;;;5.75;4.87;;;;;;;17.33;65.24;100827.50;3637595;75;21499;-83
2022/06/04 22:54:43;;;;;;;5.30;4.67;;;;;;;17.32;65.13;100831.03;3620508;75;21022;-83
2022/06/04 22:59:38;;;;;;;5.60;5.08;;;;;;;17.28;65.06;100837.21;3635189;75;20990;-83
2022/06/04 23:04:32;;;;;;;5.40;4.90;;;;;;;17.26;64.98;100841.58;3596783;75;21473;-83
2022/06/04 23:24:54;;;;;;;5.83;4.95;;;;;;;17.03;64.74;100853.16;3632814;76;21507;-83
2022/06/04 23:29:46;;;;;;;5.00;4.50;;;;;;;16.99;64.74;100858.02;3595508;75;20893;-83
2022/06/04 23:34:38;;;;;;;6.78;5.65;;;;;;;16.93;64.71;100870.73;3604529;75;20934;-83
2022/06/04 23:39:29;;;;;;;6.53;5.10;;;;;;;16.86;64.88;100863.77;3640885;75;21586;-83
2022/06/04 23:44:20;;;;;;;4.80;4.45;;;;;;;16.82;64.91;100873.84;3656170;75;20967;-84
2022/06/04 23:49:11;;;;;;;5.92;5.33;;;;;;;16.73;64.87;100879.16;3623059;75;21376;-83
2022/06/04 23:54:04;;;;;;;5.40;4.87;;;;;;;16.68;64.79;100873.91;3673994;76;20903;-83
2022/06/04 23:58:56;;;;;;;5.42;4.75;;;;;;;16.65;64.76;100870.02;3686272;76;20954;-83
